Time;durP1;ratioP1;P1;durP2;ratioP2;P2;SDS_P1;SDS_P2;PMS_P1;PMS_P2;Temp;Humidity;BMP_temperature;BMP_pressure;BME280_temperature;BME280_humidity;BME280_pressure;Samples;Min_cycle;Max_cycle;Signal;HPM_P1;HPM_P2
2022/10/12 00:01:24;;;;;;;1.20;1.20;;;20.10;70.20;;;;;;5089719;27;43761;-74
2022/10/12 00:03:52;;;;;;;1.30;1.30;;;20.20;69.70;;;;;;5090197;27;43416;-74
2022/10/12 00:06:21;;;;;;;1.70;1.40;;;20.30;69.10;;;;;;5088775;28;43426;-75
2022/10/12 00:08:50;;;;;;;1.27;1.27;;;20.40;68.70;;;;;;5088938;27;43402;-74
2022/10/12 00:11:19;;;;;;;1.30;1.30;;;20.40;68.70;;;;;;5089245;28;43791;-73
2022/10/12 00:13:47;;;;;;;1.40;1.40;;;20.40;68.80;;;;;;5085824;28;44367;-73
2022/10/12 00:16:17;;;;;;;1.50;1.50;;;20.30;69.00;;;;;;5099111;27;43361;-73
2022/10/12 00:18:49;;;;;;;1.20;1.20;;;20.20;69.20;;;;;;5082953;28;43513;-73
2022/10/12 00:21:18;;;;;;;1.53;1.53;;;20.20;69.70;;;;;;5089723;27;43664;-75
2022/10/12 00:23:46;;;;;;;1.30;1.30;;;20.20;69.60;;;;;;5089924;27;43433;-75
2022/10/12 00:26:15;;;;;;;1.30;1.30;;;20.10;69.50;;;;;;5089497;27;43396;-74
2022/10/12 00:28:43;;;;;;;1.33;1.33;;;20.10;69.60;;;;;;5090222;27;43380;-73
2022/10/12 00:31:12;;;;;;;1.27;1.20;;;20.00;69.80;;;;;;5089771;27;43688;-74
2022/10/12 00:33:42;;;;;;;1.10;1.10;;;20.00;70.20;;;;;;5089755;27;43460;-74
2022/10/12 00:36:14;;;;;;;1.10;1.10;;;20.10;70.00;;;;;;5089672;27;43426;-73
2022/10/12 00:38:42;;;;;;;1.20;1.20;;;20.20;69.60;;;;;;5089658;27;43830;-73
2022/10/12 00:41:10;;;;;;;1.20;1.20;;;20.20;69.40;;;;;;5087778;28;45954;-73
2022/10/12 00:43:40;;;;;;;1.23;1.23;;;20.20;69.30;;;;;;5087905;28;43414;-74
2022/10/12 00:46:12;;;;;;;1.30;1.30;;;20.20;69.60;;;;;;5087759;28;43462;-73
2022/10/12 00:48:42;;;;;;;1.20;1.20;;;20.20;69.60;;;;;;5088072;28;43473;-74
2022/10/12 00:51:09;;;;;;;1.30;1.30;;;20.20;69.60;;;;;;5089244;27;43961;-74
2022/10/12 00:53:39;;;;;;;1.20;1.20;;;20.10;69.50;;;;;;5089327;27;43435;-74
2022/10/12 00:56:09;;;;;;;1.30;1.30;;;20.10;69.50;;;;;;5089591;27;43404;-74
2022/10/12 00:58:37;;;;;;;1.47;1.43;;;20.10;69.90;;;;;;5086377;28;43400;-73
2022/10/12 01:01:05;;;;;;;1.50;1.50;;;20.00;70.00;;;;;;5090211;27;43605;-74
2022/10/12 01:03:33;;;;;;;1.30;1.30;;;20.00;69.80;;;;;;5089216;27;43755;-73
2022/10/12 01:06:02;;;;;;;1.40;1.40;;;20.00;69.80;;;;;;5088774;27;44053;-74
2022/10/12 01:08:30;;;;;;;1.43;1.43;;;20.00;69.90;;;;;;5089286;27;43816;-74
2022/10/12 01:10:58;;;;;;;1.27;1.27;;;20.00;70.00;;;;;;5088687;28;43897;-74
2022/10/12 01:13:26;;;;;;;1.20;1.20;;;20.00;70.50;;;;;;5087206;28;44372;-74
2022/10/12 01:15:55;;;;;;;1.20;1.20;;;20.00;70.10;;;;;;5088788;27;44011;-72
2022/10/12 01:18:25;;;;;;;1.30;1.30;;;20.10;69.70;;;;;;5088924;27;43510;-73
2022/10/12 01:21:02;;;;;;;1.30;1.30;;;20.20;69.20;;;;;;5088349;27;43681;-75
2022/10/12 01:24:01;;;;;;;1.27;1.27;;;20.40;68.90;;;;;;5088954;27;43454;-74
2022/10/12 01:27:03;;;;;;;1.27;1.27;;;20.30;68.70;;;;;;5067582;28;44122;-74
2022/10/12 01:29:40;;;;;;;1.20;1.20;;;20.30;69.00;;;;;;5078228;27;43438;-74
2022/10/12 01:32:11;;;;;;;1.50;1.50;;;20.20;69.10;;;;;;5088520;27;43831;-75
2022/10/12 01:34:42;;;;;;;1.27;1.27;;;20.10;69.60;;;;;;5088263;27;44895;-74
2022/10/12 01:37:12;;;;;;;1.30;1.30;;;20.10;69.70;;;;;;5088684;27;43461;-74
2022/10/12 01:39:43;;;;;;;1.40;1.40;;;20.10;69.60;;;;;;5088479;28;43450;-73
2022/10/12 01:42:14;;;;;;;1.27;1.27;;;20.00;69.60;;;;;;5088622;28;43913;-73
2022/10/12 01:44:42;;;;;;;1.20;1.20;;;20.00;69.70;;;;;;5088530;27;43438;-74
2022/10/12 01:47:11;;;;;;;1.10;1.10;;;20.00;70.10;;;;;;5088379;28;43425;-73
2022/10/12 01:49:39;;;;;;;1.33;1.33;;;20.00;70.20;;;;;;5088724;28;43422;-75
2022/10/12 01:52:20;;;;;;;1.10;1.10;;;20.00;70.00;;;;;;5087857;27;44015;-74
2022/10/12 01:55:02;;;;;;;1.10;1.10;;;20.00;69.90;;;;;;5087953;28;43752;-74
2022/10/12 01:57:33;;;;;;;1.10;1.10;;;19.90;69.90;;;;;;5082994;28;43490;-74
2022/10/12 02:00:03;;;;;;;1.20;1.20;;;19.90;70.30;;;;;;5088427;27;43460;-74
2022/10/12 02:02:36;;;;;;;1.40;1.40;;;19.90;70.40;;;;;;5086519;28;46136;-73
2022/10/12 02:05:06;;;;;;;1.20;1.20;;;20.00;69.90;;;;;;5088457;28;43425;-75
2022/10/12 02:07:39;;;;;;;1.20;1.20;;;20.10;69.50;;;;;;5086672;28;43504;-74
2022/10/12 02:10:09;;;;;;;1.40;1.40;;;20.30;69.00;;;;;;5086671;28;43539;-74
2022/10/12 02:12:37;;;;;;;1.30;1.30;;;20.30;68.70;;;;;;5088017;27;43851;-74
2022/10/12 02:15:06;;;;;;;1.10;1.10;;;20.30;68.70;;;;;;5087988;27;43406;-73
2022/10/12 02:17:35;;;;;;;1.10;1.10;;;20.20;68.80;;;;;;5087356;27;43496;-73
2022/10/12 02:20:04;;;;;;;1.33;1.33;;;20.20;69.00;;;;;;5086354;28;43545;-75
2022/10/12 02:22:34;;;;;;;1.30;1.30;;;20.10;69.50;;;;;;5087789;28;43925;-74
2022/10/12 02:25:03;;;;;;;1.30;1.30;;;20.10;69.70;;;;;;5087362;28;43465;-73
2022/10/12 02:27:31;;;;;;;1.40;1.40;;;20.10;69.60;;;;;;5087931;27;43447;-74
2022/10/12 02:29:59;;;;;;;1.20;1.20;;;20.00;69.50;;;;;;5086443;28;43529;-74
2022/10/12 02:32:28;;;;;;;1.30;1.30;;;20.00;69.70;;;;;;5087370;27;43791;-74
2022/10/12 02:35:00;;;;;;;1.20;1.20;;;20.00;70.10;;;;;;5086081;28;44758;-74
2022/10/12 02:37:31;;;;;;;1.10;1.10;;;20.00;70.10;;;;;;5087367;27;43898;-73
2022/10/12 02:40:03;;;;;;;1.40;1.40;;;20.00;69.70;;;;;;5087797;27;43926;-74
2022/10/12 02:42:31;;;;;;;1.20;1.20;;;20.10;69.40;;;;;;5085856;28;45735;-74
2022/10/12 02:45:19;;;;;;;1.30;1.30;;;20.10;69.20;;;;;;5083519;28;43900;-74
2022/10/12 02:47:47;;;;;;;1.10;1.10;;;20.10;69.40;;;;;;5086919;28;43476;-73
2022/10/12 02:50:16;;;;;;;1.30;1.30;;;20.10;69.60;;;;;;5087784;27;43430;-73
2022/10/12 02:52:44;;;;;;;1.33;1.33;;;20.10;69.60;;;;;;5087139;27;43598;-73
2022/10/12 02:55:12;;;;;;;1.10;1.10;;;20.00;69.40;;;;;;5087415;27;43350;-75
2022/10/12 02:57:40;;;;;;;1.10;1.10;;;20.00;69.50;;;;;;5087357;27;43398;-74
2022/10/12 03:00:09;;;;;;;1.10;1.10;;;20.00;69.60;;;;;;5087814;27;43530;-73
2022/10/12 03:02:37;;;;;;;1.27;1.27;;;20.00;70.10;;;;;;5085497;28;46007;-74
2022/10/12 03:05:06;;;;;;;1.20;1.20;;;20.00;70.10;;;;;;5087078;27;43329;-73
2022/10/12 03:07:35;;;;;;;1.00;1.00;;;19.90;69.80;;;;;;5085889;28;43413;-75
2022/10/12 03:10:04;;;;;;;1.10;1.10;;;19.90;69.80;;;;;;5087406;27;43390;-73
2022/10/12 03:12:32;;;;;;;0.90;0.90;;;19.90;69.90;;;;;;5086709;27;43617;-74
2022/10/12 03:15:00;;;;;;;1.10;1.10;;;19.90;70.30;;;;;;5086350;27;43508;-74
2022/10/12 03:17:28;;;;;;;1.30;1.30;;;19.90;70.30;;;;;;5087090;27;43410;-72
2022/10/12 03:19:55;;;;;;;1.20;1.20;;;20.00;70.00;;;;;;5087588;27;43442;-73
2022/10/12 03:22:23;;;;;;;1.20;1.20;;;20.10;69.50;;;;;;5086865;27;43610;-75
2022/10/12 03:24:53;;;;;;;1.27;1.20;;;20.20;69.30;;;;;;5086780;27;43374;-73
2022/10/12 03:27:21;;;;;;;1.40;1.40;;;20.10;69.10;;;;;;5086756;27;43430;-73
2022/10/12 03:29:49;;;;;;;1.07;1.07;;;20.10;69.40;;;;;;5086769;27;44002;-75
2022/10/12 03:32:17;;;;;;;1.30;1.30;;;20.10;69.50;;;;;;5086600;27;43870;-72
2022/10/12 03:34:44;;;;;;;1.03;1.03;;;20.10;69.30;;;;;;5085316;28;45045;-74
2022/10/12 03:37:12;;;;;;;1.20;1.20;;;20.10;69.40;;;;;;5086916;27;43425;-74
2022/10/12 03:39:40;;;;;;;1.10;1.10;;;20.00;69.40;;;;;;5086914;27;43453;-74
2022/10/12 03:42:10;;;;;;;1.27;1.27;;;20.00;69.60;;;;;;5086565;27;43854;-74
2022/10/12 03:44:38;;;;;;;1.80;1.70;;;20.00;70.10;;;;;;5086377;27;43919;-73
2022/10/12 03:47:06;;;;;;;4.90;1.70;;;20.00;69.80;;;;;;5087097;27;43521;-74
2022/10/12 03:49:34;;;;;;;1.90;1.80;;;19.90;69.70;;;;;;5087227;27;43466;-73
2022/10/12 03:52:02;;;;;;;4.60;2.23;;;19.90;69.70;;;;;;5086216;27;43999;-74
2022/10/12 03:54:29;;;;;;;3.80;2.37;;;19.90;69.80;;;;;;5086339;27;44117;-73
2022/10/12 03:56:57;;;;;;;5.13;2.60;;;19.90;70.30;;;;;;5086359;27;43422;-73
2022/10/12 03:59:27;;;;;;;5.17;3.07;;;19.90;69.90;;;;;;5086907;27;43936;-73
2022/10/12 04:01:54;;;;;;;7.20;3.17;;;20.00;69.50;;;;;;5086238;27;43747;-74
2022/10/12 04:04:22;;;;;;;7.33;3.20;;;20.20;69.10;;;;;;5085982;27;43428;-73
2022/10/12 04:06:50;;;;;;;7.70;3.40;;;20.20;68.60;;;;;;5086425;27;43380;-74
2022/10/12 04:09:18;;;;;;;5.77;3.17;;;20.20;68.50;;;;;;5086328;27;43407;-73
2022/10/12 04:11:46;;;;;;;9.20;3.60;;;20.20;68.50;;;;;;5084798;27;46432;-73
2022/10/12 04:14:14;;;;;;;6.47;3.73;;;20.10;68.70;;;;;;5086116;27;43386;-73
2022/10/12 04:16:43;;;;;;;7.13;3.93;;;20.10;69.10;;;;;;5085100;28;43951;-73
2022/10/12 04:19:12;;;;;;;8.47;4.07;;;20.00;69.50;;;;;;5084099;28;43511;-74
2022/10/12 04:21:40;;;;;;;6.10;3.80;;;20.00;69.30;;;;;;5085832;27;43970;-73
2022/10/12 04:24:08;;;;;;;6.60;3.83;;;20.00;69.20;;;;;;5086080;27;43466;-73
2022/10/12 04:26:36;;;;;;;6.17;3.37;;;20.00;69.30;;;;;;5086201;27;43433;-73
2022/10/12 04:29:04;;;;;;;8.00;4.40;;;19.90;69.50;;;;;;5085557;28;43487;-74
2022/10/12 04:31:32;;;;;;;7.37;3.63;;;19.90;69.90;;;;;;5085115;27;43929;-73
2022/10/12 04:34:01;;;;;;;7.00;3.77;;;19.90;69.70;;;;;;5084636;27;44144;-73
2022/10/12 04:36:29;;;;;;;6.83;3.63;;;19.90;69.60;;;;;;5083372;28;43382;-75
2022/10/12 04:38:57;;;;;;;7.70;4.00;;;19.90;69.60;;;;;;5085529;27;43338;-74
2022/10/12 04:41:28;;;;;;;7.23;3.90;;;19.80;69.70;;;;;;5081964;28;45304;-73
2022/10/12 04:43:56;;;;;;;7.50;3.90;;;19.90;70.30;;;;;;5088844;28;44124;-74
2022/10/12 04:46:23;;;;;;;8.10;3.77;;;19.90;69.90;;;;;;5087843;28;43468;-74
2022/10/12 04:48:51;;;;;;;6.37;3.87;;;20.10;69.50;;;;;;5089667;27;43482;-74
2022/10/12 04:51:21;;;;;;;7.60;3.73;;;20.20;68.90;;;;;;5089164;27;43664;-73
2022/10/12 04:53:49;;;;;;;6.83;3.97;;;20.20;68.70;;;;;;5089177;27;43517;-72
2022/10/12 04:56:16;;;;;;;6.67;3.77;;;20.20;68.50;;;;;;5088816;27;43493;-72
2022/10/12 04:58:44;;;;;;;5.53;3.30;;;20.20;68.70;;;;;;5089715;27;43548;-74
2022/10/12 05:01:12;;;;;;;5.27;3.63;;;20.10;68.90;;;;;;5088963;27;43602;-74
2022/10/12 05:03:40;;;;;;;7.77;4.17;;;20.00;69.10;;;;;;5087775;28;44290;-73
2022/10/12 05:06:09;;;;;;;7.23;3.70;;;20.00;69.60;;;;;;5088944;27;43994;-73
2022/10/12 05:08:38;;;;;;;3.80;3.23;;;20.00;69.60;;;;;;5089358;27;43513;-73
2022/10/12 05:11:06;;;;;;;3.87;3.23;;;20.00;69.50;;;;;;5087447;28;45224;-74
2022/10/12 05:13:34;;;;;;;4.13;3.40;;;19.90;69.60;;;;;;5088907;27;43371;-73
2022/10/12 05:16:02;;;;;;;5.00;3.57;;;19.90;69.70;;;;;;5088888;27;43588;-73
2022/10/12 05:18:29;;;;;;;4.40;3.17;;;19.90;70.20;;;;;;5089337;27;43429;-74
2022/10/12 05:20:57;;;;;;;3.77;3.37;;;19.90;70.00;;;;;;5087372;28;45724;-73
2022/10/12 05:23:25;;;;;;;5.30;3.47;;;20.00;69.60;;;;;;5088641;27;43370;-74
2022/10/12 05:25:55;;;;;;;4.07;3.17;;;20.00;69.30;;;;;;5087501;28;43533;-73
2022/10/12 05:28:23;;;;;;;6.03;3.60;;;20.10;69.10;;;;;;5087689;28;43976;-73
2022/10/12 05:30:51;;;;;;;4.43;3.27;;;20.00;69.20;;;;;;5087137;28;45259;-73
2022/10/12 05:33:19;;;;;;;3.67;3.27;;;20.00;69.70;;;;;;5088326;27;43454;-73
2022/10/12 05:35:49;;;;;;;4.70;3.50;;;20.00;69.50;;;;;;5085608;27;43544;-74
2022/10/12 05:38:23;;;;;;;3.63;3.27;;;20.00;69.40;;;;;;5088381;28;43986;-73
2022/10/12 05:40:51;;;;;;;3.37;2.67;;;20.00;69.50;;;;;;5087636;27;43841;-72
2022/10/12 05:43:27;;;;;;;4.37;3.57;;;19.90;69.50;;;;;;5082109;28;43423;-73
2022/10/12 05:45:55;;;;;;;5.27;3.50;;;19.90;70.10;;;;;;5086711;28;43962;-74
2022/10/12 05:48:23;;;;;;;3.60;2.97;;;19.90;69.90;;;;;;5087200;28;43468;-74
2022/10/12 05:50:52;;;;;;;3.30;3.10;;;19.90;69.80;;;;;;5087469;27;43905;-73
2022/10/12 05:53:20;;;;;;;3.97;3.10;;;19.80;69.70;;;;;;5083996;28;44976;-74
2022/10/12 05:55:54;;;;;;;3.50;3.20;;;19.80;69.90;;;;;;5088216;27;43990;-73
2022/10/12 05:58:22;;;;;;;3.30;3.00;;;19.80;70.40;;;;;;5088890;27;43488;-73
2022/10/12 06:00:52;;;;;;;3.53;3.20;;;19.80;70.10;;;;;;5086818;28;45289;-73
2022/10/12 06:03:19;;;;;;;4.53;3.50;;;19.90;69.80;;;;;;5087958;27;44014;-74
2022/10/12 06:05:52;;;;;;;3.77;2.83;;;20.00;69.50;;;;;;5086970;28;43466;-74
2022/10/12 06:08:20;;;;;;;3.33;2.90;;;20.00;69.30;;;;;;5088965;27;43454;-73
2022/10/12 06:10:50;;;;;;;3.40;2.83;;;20.00;69.30;;;;;;5087872;27;43603;-73
2022/10/12 06:13:18;;;;;;;3.83;3.30;;;19.90;69.70;;;;;;5086713;28;44270;-74
2022/10/12 06:15:46;;;;;;;3.53;3.20;;;19.90;69.60;;;;;;5088229;27;43954;-74
2022/10/12 06:18:16;;;;;;;3.17;2.87;;;19.90;69.50;;;;;;5087337;28;43444;-74
2022/10/12 06:20:46;;;;;;;3.80;3.43;;;19.90;69.60;;;;;;5088152;27;43598;-73
2022/10/12 06:23:15;;;;;;;2.90;2.70;;;19.80;69.60;;;;;;5084536;28;43404;-74
2022/10/12 06:25:43;;;;;;;3.50;2.97;;;19.80;69.80;;;;;;5086789;28;43541;-73
2022/10/12 06:28:10;;;;;;;3.33;2.97;;;19.80;69.90;;;;;;5088431;27;43455;-74
2022/10/12 06:30:38;;;;;;;3.40;3.07;;;19.70;70.00;;;;;;5088079;27;43610;-74
2022/10/12 06:33:06;;;;;;;2.53;2.43;;;19.70;70.10;;;;;;5087904;27;43869;-74
2022/10/12 06:35:36;;;;;;;3.63;3.10;;;19.70;70.20;;;;;;5087465;27;43511;-73
2022/10/12 06:38:04;;;;;;;2.77;2.57;;;19.70;70.40;;;;;;5084901;28;43462;-74
2022/10/12 06:40:31;;;;;;;3.07;2.77;;;19.70;71.00;;;;;;5087023;28;43843;-73
2022/10/12 06:43:01;;;;;;;2.90;2.70;;;19.70;70.60;;;;;;5087302;27;43420;-74
2022/10/12 06:45:29;;;;;;;2.93;2.80;;;19.80;70.00;;;;;;5088108;28;43370;-74
2022/10/12 06:47:57;;;;;;;2.90;2.70;;;20.00;69.50;;;;;;5088028;27;43427;-74
2022/10/12 06:50:25;;;;;;;2.90;2.70;;;20.20;68.90;;;;;;5087321;27;44025;-74
2022/10/12 06:52:54;;;;;;;3.67;2.67;;;20.40;68.40;;;;;;5085876;28;44656;-73
2022/10/12 06:55:22;;;;;;;3.20;2.93;;;20.60;67.80;;;;;;5086241;28;43374;-73
2022/10/12 06:57:50;;;;;;;3.07;2.80;;;20.70;67.40;;;;;;5086016;28;43581;-74
2022/10/12 07:00:18;;;;;;;2.93;2.73;;;20.80;66.90;;;;;;5087316;27;43866;-74
2022/10/12 07:02:48;;;;;;;2.83;2.63;;;20.90;66.60;;;;;;5087211;28;43369;-74
2022/10/12 07:05:16;;;;;;;2.90;2.70;;;20.90;66.20;;;;;;5086824;27;43438;-73
2022/10/12 07:07:44;;;;;;;2.90;2.70;;;21.00;66.00;;;;;;5088051;27;43431;-74
2022/10/12 07:10:13;;;;;;;3.23;3.00;;;21.00;66.00;;;;;;5086183;27;45058;-74
2022/10/12 07:12:41;;;;;;;3.23;2.87;;;20.90;66.30;;;;;;5087259;28;43430;-74
2022/10/12 07:15:10;;;;;;;2.80;2.60;;;20.80;66.70;;;;;;5087432;27;43482;-73
2022/10/12 07:17:38;;;;;;;2.80;2.63;;;20.60;67.20;;;;;;5087394;27;43485;-74
2022/10/12 07:20:07;;;;;;;3.73;3.10;;;20.50;67.40;;;;;;5087530;27;43677;-74
2022/10/12 07:22:35;;;;;;;2.63;2.43;;;20.40;67.60;;;;;;5087342;27;43429;-74
2022/10/12 07:25:03;;;;;;;2.87;2.67;;;20.30;67.90;;;;;;5085780;28;43412;-74
2022/10/12 07:27:32;;;;;;;3.10;2.80;;;20.20;68.20;;;;;;5087629;27;43494;-73
2022/10/12 07:30:00;;;;;;;2.80;2.60;;;20.10;68.70;;;;;;5086975;27;43614;-73
2022/10/12 07:32:28;;;;;;;3.07;2.77;;;20.10;68.80;;;;;;5085373;28;44723;-73
2022/10/12 07:34:56;;;;;;;2.90;2.70;;;20.20;68.50;;;;;;5086975;27;43466;-73
2022/10/12 07:37:24;;;;;;;2.47;2.37;;;20.30;68.90;;;;;;5087101;27;43458;-74
2022/10/12 07:39:56;;;;;;;2.33;2.23;;;20.40;68.00;;;;;;5086249;27;43611;-74
2022/10/12 07:42:24;;;;;;;2.97;2.67;;;20.40;68.00;;;;;;5086967;27;43485;-75
2022/10/12 07:44:53;;;;;;;3.10;2.90;;;20.30;68.10;;;;;;5086439;27;43482;-74
2022/10/12 07:47:21;;;;;;;2.40;2.30;;;20.20;68.30;;;;;;5085873;28;43554;-73
2022/10/12 07:49:49;;;;;;;2.57;2.40;;;20.10;68.50;;;;;;5086683;27;43875;-74
2022/10/12 07:52:17;;;;;;;2.53;2.37;;;20.00;69.00;;;;;;5086700;28;43382;-72
2022/10/12 07:54:45;;;;;;;2.43;2.33;;;20.00;69.10;;;;;;5086248;27;43441;-73
2022/10/12 07:57:13;;;;;;;2.40;2.30;;;20.00;69.20;;;;;;5085710;28;43616;-74
2022/10/12 07:59:41;;;;;;;2.73;2.53;;;19.90;69.20;;;;;;5084835;28;45287;-74
2022/10/12 08:02:10;;;;;;;2.40;2.30;;;19.90;69.50;;;;;;5086511;27;43518;-73
2022/10/12 08:04:38;;;;;;;2.53;2.43;;;19.80;69.80;;;;;;5086268;27;43448;-74
2022/10/12 08:07:06;;;;;;;2.43;2.33;;;19.90;69.70;;;;;;5087309;27;43839;-74
2022/10/12 08:09:35;;;;;;;2.33;2.23;;;20.00;69.40;;;;;;5086454;27;43850;-72
2022/10/12 08:12:03;;;;;;;2.83;2.63;;;20.10;68.80;;;;;;5086507;28;43418;-73
2022/10/12 08:14:31;;;;;;;2.53;2.43;;;20.10;68.50;;;;;;5086491;27;43425;-74
2022/10/12 08:16:58;;;;;;;3.00;2.80;;;20.10;68.50;;;;;;5088703;27;43537;-74
2022/10/12 08:19:28;;;;;;;2.60;2.50;;;20.10;68.60;;;;;;5090073;28;43893;-73
2022/10/12 08:22:02;;;;;;;2.30;2.20;;;20.00;68.80;;;;;;5083345;28;43978;-74
2022/10/12 08:24:30;;;;;;;2.30;2.20;;;19.90;69.00;;;;;;5090033;27;43437;-74
2022/10/12 08:26:57;;;;;;;2.40;2.30;;;19.90;69.60;;;;;;5084478;28;43459;-74
2022/10/12 08:29:28;;;;;;;2.40;2.30;;;19.90;69.40;;;;;;5083175;28;43865;-74
2022/10/12 08:31:56;;;;;;;2.40;2.20;;;19.80;69.40;;;;;;5085509;28;44733;-74
2022/10/12 08:34:24;;;;;;;2.50;2.40;;;19.80;69.50;;;;;;5081963;28;43424;-74
2022/10/12 08:36:54;;;;;;;2.33;2.23;;;19.80;69.60;;;;;;5089358;28;43899;-72
2022/10/12 08:39:22;;;;;;;2.30;2.10;;;19.80;70.00;;;;;;5089433;28;45061;-73
2022/10/12 08:41:54;;;;;;;2.70;2.60;;;19.80;69.70;;;;;;5089638;28;44049;-73
2022/10/12 08:44:33;;;;;;;2.97;2.30;;;19.90;69.40;;;;;;5089446;28;43362;-74
2022/10/12 08:47:04;;;;;;;2.33;2.23;;;20.10;69.00;;;;;;5089865;27;43520;-74
2022/10/12 08:49:32;;;;;;;2.30;2.20;;;20.10;69.30;;;;;;5089302;27;44010;-74
2022/10/12 08:52:05;;;;;;;2.37;2.27;;;20.10;68.60;;;;;;5087416;28;45112;-74
2022/10/12 08:54:35;;;;;;;2.10;2.00;;;20.00;68.70;;;;;;5086290;28;43358;-74
2022/10/12 08:57:03;;;;;;;2.40;2.23;;;20.00;68.90;;;;;;5089732;27;43390;-73
2022/10/12 08:59:30;;;;;;;2.27;2.10;;;19.90;69.10;;;;;;5089090;27;44073;-74
2022/10/12 09:02:04;;;;;;;2.27;2.17;;;19.90;69.60;;;;;;5087688;28;44847;-73
2022/10/12 09:04:42;;;;;;;2.43;2.23;;;19.80;69.40;;;;;;5088131;28;43462;-74
2022/10/12 09:07:12;;;;;;;2.43;2.33;;;19.80;69.40;;;;;;5089811;27;43374;-74
2022/10/12 09:09:47;;;;;;;1.90;1.80;;;19.80;69.50;;;;;;5087624;28;46105;-74
2022/10/12 09:12:23;;;;;;;2.40;2.30;;;19.80;69.80;;;;;;5089439;28;43399;-74
2022/10/12 09:14:51;;;;;;;2.10;2.00;;;19.70;70.10;;;;;;5084338;28;43442;-74
2022/10/12 09:17:24;;;;;;;2.13;2.00;;;19.70;69.80;;;;;;5087938;28;43502;-73
2022/10/12 09:19:58;;;;;;;2.70;2.50;;;19.70;69.80;;;;;;5088978;28;44122;-73
2022/10/12 09:22:27;;;;;;;1.87;1.80;;;19.70;69.80;;;;;;5082273;27;44092;-74
2022/10/12 09:24:55;;;;;;;4.00;2.00;;;19.70;69.90;;;;;;5121840;27;44002;-73
2022/10/12 09:27:23;;;;;;;2.37;2.27;;;19.70;70.50;;;;;;5088912;27;43466;-73
2022/10/12 09:29:54;;;;;;;2.20;2.10;;;19.70;70.10;;;;;;5088575;28;43929;-73
2022/10/12 09:32:30;;;;;;;2.10;2.00;;;19.80;70.40;;;;;;5088674;28;43476;-73
2022/10/12 09:34:58;;;;;;;2.27;2.20;;;20.00;69.40;;;;;;5087465;28;44012;-73
2022/10/12 09:37:28;;;;;;;2.10;2.00;;;20.10;68.90;;;;;;5089235;27;43462;-73
2022/10/12 09:39:56;;;;;;;2.10;2.00;;;20.10;68.70;;;;;;5088184;28;43998;-74
2022/10/12 09:42:24;;;;;;;2.10;2.00;;;20.10;68.80;;;;;;5088878;27;43492;-73
2022/10/12 09:44:55;;;;;;;2.00;2.00;;;20.00;68.90;;;;;;5088769;27;44040;-74
2022/10/12 09:47:25;;;;;;;2.27;2.13;;;19.90;69.20;;;;;;5087240;28;43573;-74
2022/10/12 09:49:57;;;;;;;1.93;1.83;;;19.90;69.70;;;;;;5088223;27;43991;-74
2022/10/12 09:52:29;;;;;;;2.20;2.10;;;19.80;69.60;;;;;;5086834;28;44967;-74
2022/10/12 09:54:58;;;;;;;2.13;2.03;;;19.80;69.50;;;;;;5082422;28;43465;-74
2022/10/12 09:57:33;;;;;;;1.70;1.70;;;19.80;69.70;;;;;;5083538;28;43288;-73
2022/10/12 10:00:02;;;;;;;2.20;2.10;;;19.70;69.70;;;;;;5086870;28;45702;-73
2022/10/12 10:02:47;;;;;;;2.13;2.03;;;19.70;70.30;;;;;;5084960;27;43413;-74
2022/10/12 10:05:22;;;;;;;1.90;1.90;;;19.70;70.10;;;;;;5088531;27;43869;-73
2022/10/12 10:07:51;;;;;;;2.10;2.00;;;19.70;70.10;;;;;;5087105;28;43535;-73
2022/10/12 10:10:21;;;;;;;2.10;2.00;;;19.70;70.00;;;;;;5088241;28;43914;-74
2022/10/12 10:12:57;;;;;;;2.23;2.13;;;19.70;70.10;;;;;;5088195;27;43383;-75
2022/10/12 10:15:27;;;;;;;2.10;2.00;;;19.60;70.60;;;;;;5086656;28;43437;-75
2022/10/12 10:17:55;;;;;;;2.20;2.10;;;19.70;71.20;;;;;;5088541;27;43425;-73
2022/10/12 10:20:29;;;;;;;1.93;1.93;;;19.80;70.10;;;;;;5087984;27;44685;-74
2022/10/12 10:22:58;;;;;;;2.27;2.17;;;19.90;69.60;;;;;;5087351;28;43433;-73
2022/10/12 10:25:26;;;;;;;2.13;2.13;;;20.00;69.00;;;;;;5088010;27;43374;-74
2022/10/12 10:28:21;;;;;;;2.20;2.10;;;20.10;68.80;;;;;;5082720;28;43390;-73
2022/10/12 10:30:57;;;;;;;2.10;2.00;;;20.10;68.80;;;;;;5084499;28;45302;-72
2022/10/12 10:33:25;;;;;;;2.10;2.10;;;20.00;68.90;;;;;;5087496;27;43506;-73
2022/10/12 10:35:55;;;;;;;1.90;1.90;;;19.90;69.00;;;;;;5087800;28;43429;-73
2022/10/12 10:38:24;;;;;;;1.93;1.93;;;19.90;69.60;;;;;;5087171;27;43457;-72
2022/10/12 10:40:52;;;;;;;2.03;1.93;;;19.80;69.80;;;;;;5086843;28;43862;-74
2022/10/12 10:43:22;;;;;;;1.80;1.80;;;19.80;69.70;;;;;;5087140;27;43512;-73
2022/10/12 10:45:52;;;;;;;2.00;1.97;;;19.80;69.70;;;;;;5087363;27;43448;-74
2022/10/12 10:48:22;;;;;;;1.63;1.63;;;19.70;69.70;;;;;;5083474;28;43503;-74
2022/10/12 10:50:51;;;;;;;1.97;1.97;;;19.70;70.20;;;;;;5082187;28;44817;-75
2022/10/12 10:53:20;;;;;;;2.00;1.90;;;19.70;70.20;;;;;;5087434;27;43396;-72
2022/10/12 10:55:52;;;;;;;2.13;2.03;;;19.70;70.00;;;;;;5087426;27;43429;-73
2022/10/12 10:58:24;;;;;;;2.10;2.00;;;19.70;70.10;;;;;;5087406;27;43474;-73
2022/10/12 11:00:53;;;;;;;2.00;1.90;;;19.70;70.10;;;;;;5087314;28;43984;-74
2022/10/12 11:03:22;;;;;;;1.80;1.80;;;19.60;70.50;;;;;;5087265;27;43444;-72
2022/10/12 11:05:52;;;;;;;2.23;2.13;;;19.60;70.60;;;;;;5087374;27;43461;-73
2022/10/12 11:08:21;;;;;;;2.00;2.00;;;19.70;70.30;;;;;;5087837;27;43331;-74
2022/10/12 11:10:55;;;;;;;1.93;1.87;;;19.80;69.80;;;;;;5085876;27;43562;-74
2022/10/12 11:13:24;;;;;;;1.87;1.87;;;20.00;69.40;;;;;;5087085;27;44062;-74
2022/10/12 11:15:54;;;;;;;1.93;1.83;;;20.00;69.30;;;;;;5085676;28;43451;-73
2022/10/12 11:18:30;;;;;;;1.90;1.90;;;20.00;69.30;;;;;;5087274;27;43416;-74
2022/10/12 11:20:59;;;;;;;2.20;2.10;;;19.90;69.30;;;;;;5086992;27;43597;-74
2022/10/12 11:23:34;;;;;;;1.93;1.90;;;19.80;69.40;;;;;;5087068;28;44145;-73
2022/10/12 11:26:14;;;;;;;2.27;2.17;;;19.80;70.00;;;;;;5087559;27;44073;-75
2022/10/12 11:28:42;;;;;;;1.87;1.80;;;19.70;70.10;;;;;;5081679;28;43422;-73
2022/10/12 11:31:16;;;;;;;1.60;1.60;;;19.70;69.90;;;;;;5086761;27;43685;-74
2022/10/12 11:33:44;;;;;;;1.80;1.80;;;19.70;70.00;;;;;;5086862;27;43401;-74
2022/10/12 11:36:14;;;;;;;1.97;1.97;;;19.70;70.10;;;;;;5085549;28;43486;-73
2022/10/12 11:38:43;;;;;;;1.80;1.70;;;19.60;70.50;;;;;;5085412;28;43798;-74
2022/10/12 11:41:13;;;;;;;1.80;1.80;;;19.70;70.70;;;;;;5084764;28;45548;-75
2022/10/12 11:44:03;;;;;;;2.03;2.00;;;19.70;70.20;;;;;;5086389;28;43806;-74
2022/10/12 11:46:33;;;;;;;1.90;1.80;;;19.80;69.90;;;;;;5086617;27;43449;-73
2022/10/12 11:49:02;;;;;;;1.67;1.67;;;19.80;69.70;;;;;;5086176;28;43427;-74
2022/10/12 11:51:30;;;;;;;1.70;1.70;;;19.80;70.40;;;;;;5088895;27;44058;-74
2022/10/12 11:54:00;;;;;;;1.93;1.90;;;19.80;70.10;;;;;;5090310;27;43380;-74
2022/10/12 11:56:31;;;;;;;1.93;1.83;;;19.80;69.90;;;;;;5090510;27;43474;-74
2022/10/12 11:59:02;;;;;;;1.90;1.90;;;19.70;69.80;;;;;;5090503;27;43494;-74
2022/10/12 12:01:58;;;;;;;1.90;1.90;;;19.70;70.60;;;;;;5083688;28;43647;-73
2022/10/12 12:04:30;;;;;;;1.90;1.90;;;19.70;70.10;;;;;;5088737;28;43464;-73
2022/10/12 12:07:54;;;;;;;1.77;1.77;;;19.70;70.60;;;;;;5088809;28;43388;-74
2022/10/12 12:10:50;;;;;;;1.90;1.90;;;19.60;70.30;;;;;;5078843;28;43487;-74
2022/10/12 12:13:21;;;;;;;1.70;1.70;;;19.60;70.20;;;;;;5086416;28;43903;-74
2022/10/12 12:16:32;;;;;;;1.90;1.90;;;19.60;70.30;;;;;;5086433;28;43704;-74
2022/10/12 12:19:39;;;;;;;1.50;1.50;;;19.60;70.70;;;;;;5088295;27;43398;-74
2022/10/12 12:22:19;;;;;;;2.30;2.20;;;19.60;70.70;;;;;;5078980;28;43454;-73
2022/10/12 12:25:03;;;;;;;1.80;1.80;;;19.70;70.30;;;;;;5090307;27;43886;-74
2022/10/12 12:27:36;;;;;;;1.60;1.60;;;19.80;70.00;;;;;;5087389;28;43402;-73
2022/10/12 12:30:20;;;;;;;1.70;1.70;;;19.80;69.80;;;;;;5089832;27;43421;-73
2022/10/12 12:32:49;;;;;;;1.90;1.90;;;19.80;70.10;;;;;;5089876;27;43429;-73
2022/10/12 12:35:25;;;;;;;1.70;1.70;;;19.70;70.10;;;;;;5089810;27;43862;-73
2022/10/12 12:38:21;;;;;;;2.10;2.00;;;19.80;70.00;;;;;;5084929;28;43482;-74
2022/10/12 12:40:57;;;;;;;1.60;1.60;;;19.70;70.60;;;;;;5078096;28;43516;-73
2022/10/12 12:44:00;;;;;;;2.00;1.90;;;19.70;70.00;;;;;;5083370;28;43502;-75
2022/10/12 12:47:07;;;;;;;2.33;1.63;;;19.60;70.40;;;;;;5087729;28;43974;-74
2022/10/12 12:49:59;;;;;;;1.90;1.90;;;19.60;70.50;;;;;;5079206;27;43500;-73
2022/10/12 12:52:28;;;;;;;1.80;1.80;;;19.60;70.30;;;;;;5089911;28;43395;-74
2022/10/12 12:55:09;;;;;;;1.70;1.70;;;19.60;70.40;;;;;;5085426;28;43494;-74
2022/10/12 12:58:10;;;;;;;1.60;1.60;;;19.50;70.30;;;;;;5084489;28;43935;-74
2022/10/12 13:00:39;;;;;;;1.80;1.80;;;19.50;71.00;;;;;;5075069;27;43461;-73
2022/10/12 13:03:44;;;;;;;1.70;1.70;;;19.60;70.70;;;;;;5086795;27;43433;-73
2022/10/12 13:06:42;;;;;;;1.63;1.63;;;19.70;70.40;;;;;;5088007;28;43938;-73
2022/10/12 13:09:38;;;;;;;1.57;1.57;;;19.90;69.80;;;;;;5086293;28;43910;-74